ΕΜΥ, Εθνική Μετεωρολογική Υπηρεσία - Δελτία Καιρού, Προγνώσεις

ΑΕΡΟΝΑΥΤΙΛΙΑ

GREEK AIRPORTS CODES

LGTT 181400Z 03007KT 350V080 7000 FEW018 BKN025 08/05 Q1022 RMK FEW060=

EUROPEAN AIRPORTS CODES

LFPO 181400Z VRB03KT 9999 SCT025 09/03 Q1027 NOSIG=